createdAt,value
2019-03-21T00:01:54.039Z,82.47
2019-03-21T00:04:22.256Z,82.47
2019-03-21T00:06:53.314Z,82.89
2019-03-21T00:09:21.524Z,82.70
2019-03-21T00:12:11.710Z,82.75
2019-03-21T00:15:10.270Z,82.63
2019-03-21T00:17:41.522Z,82.63
2019-03-21T00:20:15.611Z,82.85
2019-03-21T00:22:43.817Z,82.61
2019-03-21T00:25:17.445Z,82.67
2019-03-21T00:27:45.653Z,82.70
2019-03-21T00:30:16.953Z,82.74
2019-03-21T00:32:45.157Z,82.74
2019-03-21T00:35:13.359Z,82.36
2019-03-21T00:37:41.589Z,82.34
2019-03-21T00:40:13.032Z,82.34
2019-03-21T00:42:41.255Z,82.62
2019-03-21T00:45:12.365Z,82.60
2019-03-21T00:47:41.315Z,82.60
2019-03-21T00:50:12.818Z,82.56
2019-03-21T00:52:42.825Z,82.42
2019-03-21T00:55:12.867Z,82.43
2019-03-21T00:57:41.164Z,82.34
2019-03-21T01:00:18.365Z,82.40
2019-03-21T01:02:46.593Z,82.55
2019-03-21T01:05:14.804Z,82.44
2019-03-21T01:07:43.009Z,82.43
2019-03-21T01:10:20.337Z,82.39
2019-03-21T01:12:48.567Z,82.39
2019-03-21T01:15:16.774Z,82.71
2019-03-21T01:17:44.982Z,82.43
2019-03-21T01:20:15.312Z,82.41
2019-03-21T01:22:44.155Z,82.36
2019-03-21T01:25:21.340Z,82.11
2019-03-21T01:27:49.549Z,82.11
2019-03-21T01:30:19.906Z,82.28
2019-03-21T01:32:48.111Z,82.30
2019-03-21T01:35:17.059Z,82.24
2019-03-21T01:37:45.272Z,82.24
2019-03-21T01:40:25.801Z,82.27
2019-03-21T01:42:54.006Z,82.28
2019-03-21T01:45:24.257Z,82.38
2019-03-21T01:47:54.962Z,82.38
2019-03-21T01:50:25.519Z,82.54
2019-03-21T01:52:53.722Z,82.31
2019-03-21T01:55:21.934Z,82.30
2019-03-21T01:57:50.282Z,82.31
2019-03-21T02:00:28.420Z,82.31
2019-03-21T02:02:58.067Z,82.33
2019-03-21T02:05:26.280Z,82.15
2019-03-21T02:07:54.482Z,82.15
2019-03-21T02:10:22.698Z,82.24
2019-03-21T02:12:51.619Z,82.29
2019-03-21T02:15:20.010Z,82.18
2019-03-21T02:17:49.245Z,82.36
2019-03-21T02:20:22.287Z,82.35
2019-03-21T02:22:50.494Z,82.36
2019-03-21T02:25:21.409Z,82.31
2019-03-21T02:27:49.621Z,82.06
2019-03-21T02:30:26.926Z,82.06
2019-03-21T02:32:58.347Z,82.26
2019-03-21T02:35:26.574Z,82.23
2019-03-21T02:37:54.799Z,82.34
2019-03-21T02:40:25.387Z,82.29
2019-03-21T02:42:53.585Z,82.30
2019-03-21T02:45:21.806Z,82.35
2019-03-21T02:47:50.678Z,82.35
2019-03-21T02:50:31.078Z,82.13
2019-03-21T02:52:59.256Z,82.33
2019-03-21T02:55:27.467Z,82.33
2019-03-21T02:57:55.683Z,82.49
2019-03-21T03:00:41.115Z,82.35
2019-03-21T03:03:09.415Z,82.43
2019-03-21T03:05:38.263Z,82.49
2019-03-21T03:08:07.514Z,82.49
2019-03-21T03:10:56.898Z,82.50
2019-03-21T03:13:25.396Z,82.55
2019-03-21T03:15:53.601Z,82.46
2019-03-21T03:18:22.974Z,82.44
2019-03-21T03:20:51.159Z,82.64
2019-03-21T03:23:19.511Z,82.69
2019-03-21T03:25:50.545Z,82.69
2019-03-21T03:28:35.815Z,82.61
2019-03-21T03:31:04.029Z,82.63
2019-03-21T03:33:32.238Z,82.56
2019-03-21T03:36:00.456Z,82.55
2019-03-21T03:38:28.671Z,82.50
2019-03-21T03:41:01.874Z,82.68
2019-03-21T03:43:30.078Z,82.67
2019-03-21T03:45:58.302Z,82.88
2019-03-21T03:48:27.661Z,82.88
2019-03-21T03:50:55.877Z,82.85
2019-03-21T03:53:24.070Z,82.82
2019-03-21T03:55:52.308Z,82.81
2019-03-21T03:58:23.759Z,82.86
2019-03-21T04:00:51.981Z,82.96
2019-03-21T04:03:20.198Z,82.97
2019-03-21T04:05:48.414Z,82.96
2019-03-21T04:08:16.628Z,82.89
2019-03-21T04:10:52.409Z,82.93
2019-03-21T04:13:20.614Z,82.89
2019-03-21T04:15:53.136Z,83.05
2019-03-21T04:18:21.206Z,82.97
2019-03-21T04:20:52.612Z,83.06
2019-03-21T04:23:23.073Z,83.06
2019-03-21T04:26:06.265Z,83.07
2019-03-21T04:28:34.611Z,83.16
2019-03-21T04:31:02.827Z,83.08
2019-03-21T04:33:31.040Z,83.07
2019-03-21T04:35:59.247Z,83.07
2019-03-21T04:38:27.481Z,83.08
2019-03-21T04:40:55.685Z,83.19
2019-03-21T04:43:23.948Z,83.18
2019-03-21T04:46:02.603Z,83.18
2019-03-21T04:48:22.097Z,83.16
2019-03-21T04:50:50.304Z,83.28
2019-03-21T04:53:18.524Z,83.28
2019-03-21T04:55:47.204Z,83.17
2019-03-21T04:58:15.423Z,83.21
2019-03-21T05:00:51.696Z,83.16
2019-03-21T05:03:28.870Z,83.32
2019-03-21T05:05:57.080Z,83.34
2019-03-21T05:08:25.297Z,83.44
2019-03-21T05:10:53.502Z,83.44
2019-03-21T05:13:22.383Z,83.46
2019-03-21T05:15:51.630Z,83.59
2019-03-21T05:18:44.092Z,83.47
2019-03-21T05:21:15.696Z,83.50
2019-03-21T05:23:43.924Z,83.59
2019-03-21T05:26:12.116Z,83.66
2019-03-21T05:28:40.799Z,83.68
2019-03-21T05:31:21.058Z,83.78
2019-03-21T05:33:49.276Z,83.80
2019-03-21T05:36:17.477Z,83.92
2019-03-21T05:38:45.683Z,84.18
2019-03-21T05:41:13.907Z,84.18
2019-03-21T05:43:48.028Z,84.21
2019-03-21T05:46:26.033Z,84.08
2019-03-21T05:48:47.867Z,84.10
2019-03-21T05:51:16.081Z,84.13
2019-03-21T05:53:44.288Z,84.22
2019-03-21T05:56:12.506Z,84.22
2019-03-21T05:58:40.705Z,84.15
2019-03-21T06:01:12.594Z,84.19
2019-03-21T06:03:50.663Z,84.18
2019-03-21T06:06:24.710Z,84.22
2019-03-21T06:08:52.921Z,84.22
2019-03-21T06:11:21.139Z,84.26
2019-03-21T06:13:49.345Z,84.32
2019-03-21T06:16:17.564Z,84.28
2019-03-21T06:18:51.435Z,84.25
2019-03-21T06:21:22.915Z,84.22
2019-03-21T06:24:02.782Z,84.29
2019-03-21T06:26:50.358Z,84.37
2019-03-21T06:29:18.698Z,84.37
2019-03-21T06:31:46.913Z,84.38
2019-03-21T06:34:15.114Z,84.27
2019-03-21T06:36:43.325Z,84.27
2019-03-21T06:39:11.526Z,84.22
2019-03-21T06:41:39.743Z,84.23
2019-03-21T06:44:07.984Z,84.29
2019-03-21T06:46:36.169Z,84.21
2019-03-21T06:49:04.374Z,84.21
2019-03-21T06:51:32.595Z,84.25
2019-03-21T06:54:00.803Z,84.41
2019-03-21T06:56:29.022Z,84.43
2019-03-21T06:58:57.227Z,84.36
2019-03-21T07:01:25.429Z,84.30
2019-03-21T07:03:53.647Z,84.27
2019-03-21T07:06:22.750Z,84.42
2019-03-21T07:08:50.971Z,84.15
2019-03-21T07:11:19.175Z,84.15
2019-03-21T07:13:47.394Z,84.06
2019-03-21T07:16:15.598Z,84.07
2019-03-21T07:18:43.817Z,84.14
2019-03-21T07:21:12.022Z,84.21
2019-03-21T07:23:40.242Z,84.28
2019-03-21T07:26:08.522Z,84.46
2019-03-21T07:28:38.602Z,84.46
2019-03-21T07:31:06.659Z,84.33
2019-03-21T07:33:34.877Z,84.33
2019-03-21T07:36:03.084Z,84.26
2019-03-21T07:38:31.279Z,84.07
2019-03-21T07:40:59.502Z,84.07
2019-03-21T07:43:27.703Z,84.09
2019-03-21T07:45:55.914Z,84.09
2019-03-21T07:48:24.118Z,84.15
2019-03-21T07:50:52.344Z,84.25
2019-03-21T07:53:22.148Z,84.16
2019-03-21T07:55:50.449Z,84.18
2019-03-21T07:58:18.653Z,84.30
2019-03-21T08:00:46.861Z,84.45
2019-03-21T08:03:15.067Z,84.43
2019-03-21T08:05:43.287Z,84.36
2019-03-21T08:08:11.483Z,84.35
2019-03-21T08:10:39.720Z,84.29
2019-03-21T08:13:07.910Z,84.19
2019-03-21T08:15:37.840Z,84.19
2019-03-21T08:18:06.208Z,84.17
2019-03-21T08:20:34.439Z,83.96
2019-03-21T08:23:02.645Z,83.96
2019-03-21T08:25:30.856Z,84.01
2019-03-21T08:27:59.325Z,83.91
2019-03-21T08:30:38.522Z,83.82
2019-03-21T08:33:06.739Z,83.75
2019-03-21T08:35:34.941Z,83.57
2019-03-21T08:38:03.159Z,83.51
2019-03-21T08:40:31.833Z,83.41
2019-03-21T08:43:00.050Z,83.01
2019-03-21T08:45:28.245Z,83.01
2019-03-21T08:47:56.455Z,83.20
2019-03-21T08:50:24.656Z,83.04
2019-03-21T08:52:52.871Z,83.04
2019-03-21T08:55:21.072Z,82.95
2019-03-21T08:57:49.293Z,82.92
2019-03-21T09:00:17.496Z,82.91
2019-03-21T09:02:46.374Z,82.78
2019-03-21T09:05:14.571Z,82.67
2019-03-21T09:07:42.796Z,82.31
2019-03-21T09:10:11.473Z,82.31
2019-03-21T09:12:42.437Z,82.07
2019-03-21T09:15:09.881Z,82.07
2019-03-21T09:17:38.083Z,81.87
2019-03-21T09:20:07.137Z,81.83
2019-03-21T09:22:35.337Z,81.66
2019-03-21T09:25:05.294Z,81.63
2019-03-21T09:27:33.500Z,81.63
2019-03-21T09:30:01.963Z,81.58
2019-03-21T09:32:30.160Z,81.28
2019-03-21T09:34:58.377Z,81.08
2019-03-21T09:37:26.587Z,80.79
2019-03-21T09:39:54.810Z,80.54
2019-03-21T09:42:23.006Z,80.47
2019-03-21T09:44:51.216Z,80.48
2019-03-21T09:47:19.420Z,80.41
2019-03-21T09:49:47.631Z,80.35
2019-03-21T09:52:15.837Z,80.25
2019-03-21T09:54:44.321Z,80.19
2019-03-21T09:57:12.523Z,80.18
2019-03-21T09:59:40.743Z,80.20
2019-03-21T10:02:08.948Z,80.18
2019-03-21T10:04:37.171Z,80.21
2019-03-21T10:07:05.379Z,80.24
2019-03-21T10:09:33.603Z,80.30
2019-03-21T10:12:01.801Z,80.24
2019-03-21T10:14:30.023Z,80.10
2019-03-21T10:16:58.232Z,79.93
2019-03-21T10:19:26.909Z,79.94
2019-03-21T10:21:55.112Z,79.89
2019-03-21T10:24:23.329Z,79.74
2019-03-21T10:26:51.545Z,79.77
2019-03-21T10:29:19.751Z,79.78
2019-03-21T10:31:47.963Z,79.64
2019-03-21T10:34:16.177Z,79.67
2019-03-21T10:36:44.397Z,79.49
2019-03-21T10:39:12.606Z,79.31
2019-03-21T10:41:40.824Z,79.34
2019-03-21T10:44:09.033Z,79.32
2019-03-21T10:46:37.250Z,79.18
2019-03-21T10:49:05.466Z,79.07
2019-03-21T10:51:33.685Z,78.88
2019-03-21T10:54:01.897Z,78.84
2019-03-21T10:56:30.116Z,78.82
2019-03-21T10:58:58.321Z,78.68
2019-03-21T11:01:26.541Z,78.60
2019-03-21T11:03:54.748Z,78.96
2019-03-21T11:06:22.951Z,78.96
2019-03-21T11:08:51.168Z,78.37
2019-03-21T11:11:19.384Z,78.53
2019-03-21T11:13:47.601Z,78.59
2019-03-21T11:16:15.811Z,78.41
2019-03-21T11:18:44.030Z,78.04
2019-03-21T11:21:12.490Z,78.08
2019-03-21T11:23:40.706Z,77.87
2019-03-21T11:26:08.915Z,77.91
2019-03-21T11:28:37.134Z,77.91
2019-03-21T11:31:05.341Z,77.84
2019-03-21T11:33:33.548Z,77.42
2019-03-21T11:36:01.769Z,77.36
2019-03-21T11:38:29.978Z,77.35
2019-03-21T11:40:58.215Z,76.74
2019-03-21T11:43:26.436Z,76.70
2019-03-21T11:45:55.391Z,76.56
2019-03-21T11:48:23.632Z,76.43
2019-03-21T11:50:51.858Z,76.26
2019-03-21T11:53:20.102Z,76.23
2019-03-21T11:55:48.285Z,76.10
2019-03-21T11:58:17.628Z,76.05
2019-03-21T12:00:46.083Z,75.96
2019-03-21T12:03:14.291Z,75.83
2019-03-21T12:05:43.415Z,75.52
2019-03-21T12:08:11.626Z,75.71
2019-03-21T12:10:39.851Z,75.71
2019-03-21T12:13:08.138Z,75.80
2019-03-21T12:15:36.361Z,75.34
2019-03-21T12:18:04.574Z,75.50
2019-03-21T12:20:33.164Z,75.24
2019-03-21T12:23:01.383Z,75.11
2019-03-21T12:25:29.597Z,74.96
2019-03-21T12:28:01.356Z,75.18
2019-03-21T12:30:32.331Z,74.24
2019-03-21T12:33:01.005Z,75.05
2019-03-21T12:35:30.763Z,75.43
2019-03-21T12:37:58.970Z,75.16
2019-03-21T12:40:27.527Z,75.35
2019-03-21T12:42:55.738Z,75.22
2019-03-21T12:45:23.957Z,75.01
2019-03-21T12:47:52.162Z,75.09
2019-03-21T12:50:20.382Z,74.87
2019-03-21T12:52:48.591Z,75.02
2019-03-21T12:55:16.812Z,75.11
2019-03-21T12:57:45.025Z,75.03
2019-03-21T13:00:14.179Z,75.43
2019-03-21T13:05:18.620Z,75.46
2019-03-21T13:07:13.229Z,75.28
2019-03-21T13:07:46.824Z,75.45
2019-03-21T13:10:15.048Z,75.34
2019-03-21T13:12:43.263Z,75.53
2019-03-21T13:15:11.477Z,75.49
2019-03-21T13:17:39.685Z,75.44
2019-03-21T13:20:07.907Z,75.37
2019-03-21T13:22:38.231Z,75.13
2019-03-21T13:25:06.510Z,75.06
2019-03-21T13:27:34.716Z,75.20
2019-03-21T13:30:03.794Z,75.45
2019-03-21T13:32:31.993Z,75.46
2019-03-21T13:35:00.404Z,75.52
2019-03-21T13:37:28.596Z,75.63
2019-03-21T13:39:56.827Z,75.54
2019-03-21T13:42:25.038Z,75.53
2019-03-21T13:44:53.255Z,75.53
2019-03-21T13:47:21.465Z,75.50
2019-03-21T13:49:50.992Z,75.39
2019-03-21T13:52:19.267Z,75.24
2019-03-21T13:54:47.567Z,75.22
2019-03-21T13:57:15.777Z,75.17
2019-03-21T13:59:43.995Z,75.39
2019-03-21T14:02:12.200Z,75.22
2019-03-21T14:04:40.424Z,75.36
2019-03-21T14:07:08.632Z,74.93
2019-03-21T14:09:37.103Z,74.89
2019-03-21T14:12:05.315Z,74.61
2019-03-21T14:14:33.545Z,74.52
2019-03-21T14:17:01.757Z,74.38
2019-03-21T14:19:29.963Z,74.39
2019-03-21T14:21:58.175Z,74.50
2019-03-21T14:24:26.397Z,74.15
2019-03-21T14:26:54.608Z,74.33
2019-03-21T14:29:22.822Z,74.23
2019-03-21T14:31:51.035Z,74.27
2019-03-21T14:34:19.257Z,74.17
2019-03-21T14:36:47.529Z,74.16
2019-03-21T14:39:15.751Z,74.16
2019-03-21T14:41:45.601Z,74.32
2019-03-21T14:44:13.823Z,74.30
2019-03-21T14:46:42.028Z,74.67
2019-03-21T14:49:10.257Z,74.18
2019-03-21T14:51:38.500Z,74.50
2019-03-21T14:54:06.701Z,74.02
2019-03-21T14:56:34.910Z,74.79
2019-03-21T14:59:03.119Z,74.79
2019-03-21T15:01:31.341Z,74.90
2019-03-21T15:03:59.553Z,74.91
2019-03-21T15:06:27.771Z,75.02
2019-03-21T15:08:55.981Z,75.33
2019-03-21T15:11:24.213Z,75.34
2019-03-21T15:13:52.411Z,75.58
2019-03-21T15:16:20.636Z,75.72
2019-03-21T15:18:48.844Z,75.42
2019-03-21T15:21:17.061Z,75.66
2019-03-21T15:23:45.271Z,75.65
2019-03-21T15:26:13.495Z,75.79
2019-03-21T15:28:41.705Z,75.82
2019-03-21T15:31:09.926Z,75.87
2019-03-21T15:33:38.134Z,75.66
2019-03-21T15:36:06.351Z,75.91
2019-03-21T15:38:35.230Z,75.81
2019-03-21T15:41:03.445Z,76.03
2019-03-21T15:43:31.646Z,76.19
2019-03-21T15:45:59.865Z,76.18
2019-03-21T15:48:28.068Z,76.33
2019-03-21T15:51:04.300Z,76.39
2019-03-21T15:53:26.482Z,76.51
2019-03-21T15:55:54.702Z,76.40
2019-03-21T15:58:22.909Z,76.52
2019-03-21T16:00:51.131Z,76.67
2019-03-21T16:03:19.335Z,76.66
2019-03-21T16:05:47.554Z,76.71
2019-03-21T16:08:15.756Z,76.77
2019-03-21T16:10:44.449Z,76.76
2019-03-21T16:13:12.661Z,76.93
2019-03-21T16:15:40.888Z,77.03
2019-03-21T16:18:09.765Z,77.14
2019-03-21T16:20:37.972Z,77.24
2019-03-21T16:23:06.177Z,77.31
2019-03-21T16:25:34.467Z,77.38
2019-03-21T16:28:02.685Z,77.43
2019-03-21T16:30:30.897Z,77.41
2019-03-21T16:32:59.102Z,77.39
2019-03-21T16:35:27.321Z,77.43
2019-03-21T16:37:55.982Z,77.46
2019-03-21T16:40:24.195Z,77.50
2019-03-21T16:42:52.395Z,77.54
2019-03-21T16:45:21.377Z,77.51
2019-03-21T16:47:49.705Z,77.60
2019-03-21T16:50:17.922Z,77.59
2019-03-21T16:52:46.701Z,77.67
2019-03-21T16:55:14.922Z,77.76
2019-03-21T16:57:43.199Z,77.86
2019-03-21T17:00:21.707Z,77.95
2019-03-21T17:02:49.921Z,78.06
2019-03-21T17:05:18.162Z,78.11
2019-03-21T17:07:46.338Z,78.17
2019-03-21T17:10:17.862Z,78.19
2019-03-21T17:12:46.084Z,78.30
2019-03-21T17:15:14.545Z,78.40
2019-03-21T17:17:42.751Z,78.44
2019-03-21T17:20:11.824Z,78.54
2019-03-21T17:22:40.013Z,78.56
2019-03-21T17:25:08.750Z,78.54
2019-03-21T17:27:36.960Z,78.64
2019-03-21T17:30:07.577Z,78.78
2019-03-21T17:32:35.776Z,78.87
2019-03-21T17:35:05.723Z,78.83
2019-03-21T17:37:33.933Z,78.86
2019-03-21T17:40:02.168Z,79.07
2019-03-21T17:42:30.351Z,79.08
2019-03-21T17:44:58.569Z,79.27
2019-03-21T17:47:26.783Z,79.45
2019-03-21T17:49:54.998Z,79.47
2019-03-21T17:52:23.213Z,79.91
2019-03-21T17:54:51.433Z,79.89
2019-03-21T17:57:19.642Z,79.79
2019-03-21T17:59:47.844Z,79.84
2019-03-21T18:02:16.069Z,79.94
2019-03-21T18:04:44.287Z,79.95
2019-03-21T18:07:12.495Z,80.20
2019-03-21T18:09:40.725Z,80.10
2019-03-21T18:12:09.501Z,80.20
2019-03-21T18:14:37.708Z,80.59
2019-03-21T18:17:05.930Z,80.43
2019-03-21T18:19:34.146Z,80.36
2019-03-21T18:22:02.366Z,80.43
2019-03-21T18:24:30.578Z,80.45
2019-03-21T18:26:58.794Z,80.70
2019-03-21T18:29:27.469Z,80.65
2019-03-21T18:31:55.688Z,81.00
2019-03-21T18:34:23.910Z,80.99
2019-03-21T18:36:52.119Z,80.87
2019-03-21T18:39:20.323Z,80.86
2019-03-21T18:41:48.546Z,80.90
2019-03-21T18:44:16.753Z,80.81
2019-03-21T18:46:44.971Z,81.05
2019-03-21T18:49:13.187Z,81.01
2019-03-21T18:51:41.422Z,80.97
2019-03-21T18:54:09.623Z,80.76
2019-03-21T18:56:38.822Z,80.76
2019-03-21T18:59:07.044Z,80.95
2019-03-21T19:01:35.252Z,80.93
2019-03-21T19:04:03.478Z,80.99
2019-03-21T19:06:31.684Z,81.24
2019-03-21T19:08:59.907Z,81.23
2019-03-21T19:11:28.116Z,81.20
2019-03-21T19:13:56.327Z,81.47
2019-03-21T19:16:26.210Z,81.25
2019-03-21T19:18:55.242Z,81.42
2019-03-21T19:21:23.463Z,81.42
2019-03-21T19:23:51.675Z,81.31
2019-03-21T19:26:19.895Z,81.50
2019-03-21T19:28:48.108Z,81.58
2019-03-21T19:31:16.329Z,81.56
2019-03-21T19:33:44.640Z,81.56
2019-03-21T19:36:12.851Z,81.70
2019-03-21T19:38:41.307Z,82.10
2019-03-21T19:41:09.527Z,81.95
2019-03-21T19:43:37.732Z,82.14
2019-03-21T19:46:05.947Z,82.18
2019-03-21T19:48:34.158Z,82.23
2019-03-21T19:51:02.384Z,82.32
2019-03-21T19:53:30.585Z,82.25
2019-03-21T19:56:08.030Z,82.59
2019-03-21T19:58:29.309Z,82.32
2019-03-21T20:00:57.520Z,82.33
2019-03-21T20:03:25.734Z,82.45
2019-03-21T20:06:00.076Z,82.62
2019-03-21T20:08:24.723Z,82.62
2019-03-21T20:10:52.948Z,82.92
2019-03-21T20:13:21.160Z,82.93
2019-03-21T20:15:49.373Z,83.21
2019-03-21T20:18:17.597Z,83.05
2019-03-21T20:20:46.876Z,83.07
2019-03-21T20:23:15.096Z,82.84
2019-03-21T20:25:43.525Z,82.98
2019-03-21T20:28:11.707Z,82.98
2019-03-21T20:30:39.910Z,83.28
2019-03-21T20:33:08.141Z,83.36
2019-03-21T20:35:36.347Z,83.40
2019-03-21T20:38:04.569Z,83.34
2019-03-21T20:40:32.774Z,83.29
2019-03-21T20:43:00.981Z,83.28
2019-03-21T20:45:29.279Z,83.33
2019-03-21T20:47:57.491Z,83.20
2019-03-21T20:50:25.707Z,83.23
2019-03-21T20:52:53.917Z,83.30
2019-03-21T20:55:22.144Z,83.34
2019-03-21T20:57:51.974Z,83.20
2019-03-21T21:00:21.714Z,83.12
2019-03-21T21:02:50.058Z,83.37
2019-03-21T21:05:18.277Z,83.37
2019-03-21T21:07:46.477Z,83.34
2019-03-21T21:10:15.074Z,83.41
2019-03-21T21:12:43.244Z,83.34
2019-03-21T21:15:15.315Z,83.42
2019-03-21T21:17:43.527Z,83.32
2019-03-21T21:20:15.565Z,83.29
2019-03-21T21:22:43.778Z,83.55
2019-03-21T21:25:12.667Z,83.53
2019-03-21T21:27:49.534Z,83.69
2019-03-21T21:30:20.374Z,83.58
2019-03-21T21:32:48.584Z,83.32
2019-03-21T21:35:16.810Z,83.32
2019-03-21T21:37:45.587Z,83.57
2019-03-21T21:40:15.349Z,83.73
2019-03-21T21:42:43.561Z,83.89
2019-03-21T21:45:13.234Z,83.75
2019-03-21T21:47:41.441Z,83.84
2019-03-21T21:50:13.811Z,84.01
2019-03-21T21:52:42.550Z,84.06
2019-03-21T21:55:10.826Z,84.07
2019-03-21T21:57:39.045Z,84.23
2019-03-21T22:00:10.366Z,84.27
2019-03-21T22:02:38.569Z,84.18
2019-03-21T22:05:07.154Z,84.38
2019-03-21T22:07:35.384Z,84.14
2019-03-21T22:10:04.754Z,84.06
2019-03-21T22:12:32.976Z,84.03
2019-03-21T22:15:01.644Z,84.01
2019-03-21T22:17:29.908Z,83.97
2019-03-21T22:19:58.744Z,84.07
2019-03-21T22:22:27.333Z,84.09
2019-03-21T22:24:55.785Z,84.00
2019-03-21T22:27:24.278Z,84.02
2019-03-21T22:29:52.485Z,83.99
2019-03-21T22:32:20.978Z,83.91
2019-03-21T22:34:49.192Z,83.84
2019-03-21T22:37:17.691Z,83.79
2019-03-21T22:39:45.896Z,83.84
2019-03-21T22:42:14.156Z,83.85
2019-03-21T22:44:42.365Z,83.99
2019-03-21T22:47:10.589Z,84.17
2019-03-21T22:49:38.792Z,84.18
2019-03-21T22:52:07.008Z,84.19
2019-03-21T22:54:35.216Z,84.10
2019-03-21T22:57:03.517Z,84.14
2019-03-21T22:59:31.722Z,84.16
2019-03-21T23:01:59.951Z,84.13
2019-03-21T23:04:28.153Z,84.22
2019-03-21T23:06:58.001Z,84.23
2019-03-21T23:09:26.217Z,84.13
2019-03-21T23:11:54.432Z,84.09
2019-03-21T23:14:23.099Z,84.17
2019-03-21T23:16:51.312Z,84.20
2019-03-21T23:19:19.524Z,84.23
2019-03-21T23:21:47.736Z,84.16
2019-03-21T23:24:16.511Z,84.20
2019-03-21T23:26:52.805Z,84.17
2019-03-21T23:29:14.657Z,84.10
2019-03-21T23:31:42.875Z,84.18
2019-03-21T23:34:11.083Z,84.19
2019-03-21T23:36:39.304Z,84.28
2019-03-21T23:39:07.514Z,84.20
2019-03-21T23:41:35.737Z,84.17
2019-03-21T23:44:04.401Z,84.27
2019-03-21T23:46:32.622Z,84.20
2019-03-21T23:49:00.834Z,84.28
2019-03-21T23:51:29.119Z,84.48
2019-03-21T23:53:57.333Z,84.45
2019-03-21T23:56:25.542Z,84.44
2019-03-21T23:58:53.746Z,84.32
